createdAt,value
2017-08-22T19:37:50.406Z,56.9
2017-08-22T19:38:48.069Z,57.0
2017-08-22T19:39:46.423Z,56.8
2017-08-22T19:40:44.436Z,56.7
2017-08-22T19:41:42.968Z,55.7
2017-08-22T19:42:41.682Z,55.4
2017-08-22T19:43:39.528Z,55.4
2017-08-22T19:44:37.142Z,55.1
2017-08-22T19:45:35.460Z,55.4
2017-08-22T19:46:33.056Z,55.4
2017-08-22T19:47:32.656Z,53.6
2017-08-22T19:48:31.196Z,53.4
2017-08-22T19:49:28.741Z,53.5
2017-08-22T19:50:26.326Z,53.3
2017-08-22T19:51:27.335Z,53.2
2017-08-22T19:52:24.988Z,53.1
2017-08-22T19:53:22.981Z,53.2
2017-08-22T19:54:21.771Z,53.2
2017-08-22T19:55:19.798Z,53.1
2017-08-22T19:56:18.843Z,53.1
2017-08-22T19:57:18.899Z,53.1
2017-08-22T19:58:17.261Z,53.0
2017-08-22T19:59:14.952Z,52.9
2017-08-22T20:00:13.715Z,52.8
2017-08-22T20:01:12.897Z,52.8
2017-08-22T20:02:11.230Z,52.9
2017-08-22T20:03:08.801Z,52.8
2017-08-22T20:04:07.921Z,52.9
2017-08-22T20:05:05.867Z,52.8
2017-08-22T20:06:04.180Z,52.8
2017-08-22T20:07:02.502Z,52.8
2017-08-22T20:08:00.842Z,52.8
2017-08-22T20:08:58.393Z,52.7
2017-08-22T20:09:58.389Z,52.8
2017-08-22T20:10:55.957Z,52.7
2017-08-22T20:11:54.276Z,52.8
2017-08-22T20:12:51.852Z,52.7
2017-08-22T20:13:49.576Z,52.6
2017-08-22T20:14:48.677Z,52.6
2017-08-22T20:15:48.248Z,52.6
2017-08-22T20:16:46.618Z,52.5
2017-08-22T20:17:46.747Z,52.5
2017-08-22T20:18:45.105Z,52.5
2017-08-22T20:19:45.550Z,52.5
2017-08-22T20:20:47.997Z,52.4
2017-08-22T20:21:45.697Z,52.4
2017-08-22T20:22:47.804Z,52.5
2017-08-22T20:23:45.867Z,52.4
2017-08-22T20:24:45.189Z,52.3
2017-08-22T20:25:43.667Z,52.2
2017-08-22T20:26:42.000Z,53.0
2017-08-22T20:27:39.620Z,52.3
2017-08-22T20:28:37.158Z,52.2
2017-08-22T20:29:34.735Z,52.1
2017-08-22T20:30:33.112Z,51.6
2017-08-22T20:31:30.820Z,51.6
2017-08-22T20:32:29.149Z,51.4
2017-08-22T20:33:26.773Z,51.3
2017-08-22T20:34:25.104Z,51.2
2017-08-22T20:35:23.450Z,51.1
2017-08-22T20:36:21.809Z,51.1
2017-08-22T20:37:19.352Z,51.1
2017-08-22T20:38:17.652Z,51.1
2017-08-22T20:39:16.062Z,51.1
2017-08-22T20:40:14.380Z,51.1
2017-08-22T20:41:12.748Z,51.0
2017-08-22T20:42:11.154Z,51.1
2017-08-22T20:43:09.466Z,51.1
2017-08-22T20:44:07.805Z,51.2
2017-08-22T20:45:06.260Z,51.3
2017-08-22T20:46:04.370Z,51.3
2017-08-22T20:47:02.087Z,51.4
2017-08-22T20:47:59.668Z,51.3
2017-08-22T20:48:57.956Z,51.3
2017-08-22T20:49:57.124Z,51.1
2017-08-22T20:50:55.925Z,51.1
2017-08-22T20:51:54.265Z,51.1
2017-08-22T20:52:51.856Z,51.0
2017-08-22T20:53:50.213Z,51.0
2017-08-22T20:54:48.552Z,50.8
2017-08-22T20:55:46.226Z,50.8
2017-08-22T20:56:44.693Z,50.8
2017-08-22T20:57:43.068Z,51.1
2017-08-22T20:58:41.448Z,50.9
2017-08-22T20:59:39.787Z,51.1
2017-08-22T21:00:37.445Z,51.0
2017-08-22T21:01:35.004Z,51.1
2017-08-22T21:02:33.352Z,51.0
2017-08-22T21:03:30.917Z,50.9
2017-08-22T21:04:29.285Z,50.8
2017-08-22T21:05:27.635Z,50.8
2017-08-22T21:06:25.193Z,50.8
2017-08-22T21:07:22.772Z,50.8
2017-08-22T21:08:21.100Z,50.7
2017-08-22T21:09:18.673Z,50.6
2017-08-22T21:10:17.010Z,51.2
2017-08-22T21:11:14.599Z,50.5
2017-08-22T21:12:12.913Z,50.6
2017-08-22T21:13:10.496Z,50.5
2017-08-22T21:14:08.064Z,50.5
2017-08-22T21:15:06.627Z,50.5
2017-08-22T21:16:04.982Z,50.5
2017-08-22T21:17:02.548Z,50.5
2017-08-22T21:18:00.964Z,50.5
2017-08-22T21:18:59.296Z,50.4
2017-08-22T21:19:57.625Z,50.4
2017-08-22T21:20:55.409Z,50.4
2017-08-22T21:21:53.783Z,50.4
2017-08-22T21:22:52.129Z,50.4
2017-08-22T21:23:50.518Z,50.3
2017-08-22T21:24:48.860Z,50.3
2017-08-22T21:25:46.459Z,50.3
2017-08-22T21:26:44.076Z,50.4
2017-08-22T21:27:42.420Z,50.3
2017-08-22T21:28:40.009Z,50.3
2017-08-22T21:29:38.352Z,50.3
2017-08-22T21:30:35.944Z,50.2
2017-08-22T21:31:33.493Z,50.3
2017-08-22T21:32:31.056Z,50.2
2017-08-22T21:33:38.449Z,50.3
2017-08-22T21:34:36.052Z,50.2
2017-08-22T21:35:34.392Z,50.2
2017-08-22T21:36:31.950Z,50.2
2017-08-22T21:37:29.554Z,50.2
2017-08-22T21:38:28.209Z,50.2
2017-08-22T21:39:25.837Z,50.2
2017-08-22T21:40:23.409Z,50.2
2017-08-22T21:41:20.975Z,50.0
2017-08-22T21:42:19.317Z,50.1
2017-08-22T21:43:17.645Z,50.2
2017-08-22T21:44:15.282Z,50.1
2017-08-22T21:45:13.188Z,50.2
2017-08-22T21:46:11.528Z,50.2
2017-08-22T21:47:09.120Z,50.1
2017-08-22T21:48:07.481Z,50.1
2017-08-22T21:49:05.809Z,50.1
2017-08-22T21:50:04.161Z,50.1
2017-08-22T21:51:01.787Z,50.1
2017-08-22T21:52:00.168Z,50.0
2017-08-22T21:52:57.732Z,50.0
2017-08-22T21:53:55.282Z,50.0
2017-08-22T21:54:52.873Z,50.0
2017-08-22T21:55:51.209Z,50.1
2017-08-22T21:56:48.789Z,50.0
2017-08-22T21:57:46.344Z,50.1
2017-08-22T21:58:44.801Z,50.2
2017-08-22T22:04:44.556Z,51.9
2017-08-22T22:05:42.958Z,53.9
2017-08-22T22:06:40.482Z,53.9
2017-08-22T22:07:38.792Z,52.9
2017-08-22T22:08:37.096Z,52.5
2017-08-22T22:09:34.632Z,52.4
2017-08-22T22:10:32.217Z,52.7
2017-08-22T22:11:29.758Z,52.0
2017-08-22T22:12:28.322Z,51.9
2017-08-22T22:13:26.658Z,51.8
2017-08-22T22:14:24.207Z,51.8
2017-08-22T22:15:21.785Z,51.7
2017-08-22T22:16:20.137Z,51.7
2017-08-22T22:17:18.463Z,51.6
2017-08-22T22:18:16.873Z,51.6
2017-08-22T22:19:14.439Z,51.6
2017-08-22T22:20:12.761Z,51.5
2017-08-22T22:21:12.153Z,51.5
2017-08-22T22:22:09.737Z,51.5
2017-08-22T22:23:08.207Z,51.5
2017-08-22T22:24:06.719Z,51.5
2017-08-22T22:25:04.291Z,51.5
2017-08-22T22:26:02.763Z,51.5
2017-08-22T22:27:00.413Z,51.5
2017-08-22T22:27:58.789Z,51.5
2017-08-22T22:28:56.352Z,51.5
2017-08-22T22:29:53.935Z,51.5
2017-08-22T22:30:52.352Z,51.5
2017-08-22T22:31:49.899Z,51.5
2017-08-22T22:32:48.237Z,51.5
2017-08-22T22:33:47.117Z,51.5
2017-08-22T22:34:45.449Z,51.5
2017-08-22T22:35:43.274Z,51.5
2017-08-22T22:36:42.278Z,51.5
2017-08-22T22:37:40.727Z,51.5
2017-08-22T22:38:38.543Z,51.6
2017-08-22T22:39:37.607Z,51.6
2017-08-22T22:40:35.185Z,51.6
2017-08-22T22:41:32.728Z,51.6
2017-08-22T22:42:30.270Z,51.6
2017-08-22T22:43:28.627Z,51.6
2017-08-22T22:44:26.165Z,51.6
2017-08-22T22:45:23.775Z,51.7
2017-08-22T22:46:22.218Z,51.7
2017-08-22T22:47:19.871Z,51.6
2017-08-22T22:48:17.425Z,51.7
2017-08-22T22:49:14.993Z,51.7
2017-08-22T22:50:12.528Z,51.7
2017-08-22T22:51:10.857Z,51.7
2017-08-22T22:52:08.491Z,51.7
2017-08-22T22:53:06.056Z,51.7
2017-08-22T22:54:03.625Z,51.7
2017-08-22T22:55:01.948Z,51.7
2017-08-22T22:56:00.129Z,51.7
2017-08-22T22:56:59.416Z,51.7
2017-08-22T22:57:57.767Z,51.7
2017-08-22T22:58:56.311Z,51.7
2017-08-22T22:59:54.799Z,51.7
2017-08-22T23:00:52.545Z,51.6
2017-08-22T23:01:50.071Z,51.7
2017-08-22T23:02:48.405Z,51.7
2017-08-22T23:03:45.952Z,51.7
2017-08-22T23:04:43.512Z,51.7
2017-08-22T23:05:41.071Z,51.7
2017-08-22T23:06:38.605Z,51.7
2017-08-22T23:07:36.219Z,51.7
2017-08-22T23:08:33.829Z,51.7
2017-08-22T23:09:32.153Z,51.7
2017-08-22T23:10:29.697Z,51.7
2017-08-22T23:11:27.274Z,51.7
2017-08-22T23:12:24.821Z,51.7
2017-08-22T23:13:23.873Z,51.7
2017-08-22T23:14:21.445Z,51.7
2017-08-22T23:15:19.748Z,51.7
2017-08-22T23:16:18.485Z,51.7
2017-08-22T23:17:16.016Z,51.7
2017-08-22T23:18:14.316Z,51.7
2017-08-22T23:19:11.861Z,51.7
2017-08-22T23:20:10.190Z,51.7
2017-08-22T23:21:08.516Z,51.7
2017-08-22T23:22:06.840Z,51.7
2017-08-22T23:23:05.198Z,51.7
2017-08-22T23:24:02.761Z,51.7
2017-08-22T23:25:01.072Z,51.7
2017-08-22T23:25:59.413Z,51.7
2017-08-22T23:26:56.942Z,51.7
2017-08-22T23:27:55.241Z,51.7
2017-08-22T23:28:53.569Z,51.7
2017-08-22T23:29:51.901Z,51.7
2017-08-22T23:30:50.378Z,51.7
2017-08-22T23:31:47.956Z,51.7
2017-08-22T23:32:46.260Z,51.7
2017-08-22T23:33:44.552Z,51.8
2017-08-22T23:34:42.869Z,51.7
2017-08-22T23:35:40.460Z,51.7
2017-08-22T23:36:38.785Z,51.8
2017-08-22T23:37:36.364Z,51.7
2017-08-22T23:38:33.942Z,51.8
2017-08-22T23:39:31.497Z,51.8
2017-08-22T23:40:29.880Z,51.8
2017-08-22T23:41:27.415Z,51.8
2017-08-22T23:42:24.989Z,51.8
2017-08-22T23:43:23.324Z,51.8
2017-08-22T23:44:20.943Z,51.8
2017-08-22T23:45:19.254Z,51.8
2017-08-22T23:46:16.819Z,51.8
2017-08-22T23:47:14.385Z,51.9
2017-08-22T23:48:12.734Z,51.9
2017-08-22T23:49:10.321Z,51.9
2017-08-22T23:50:07.913Z,51.8
2017-08-22T23:51:05.489Z,51.9
2017-08-22T23:52:03.185Z,51.9
2017-08-22T23:53:00.752Z,51.9
2017-08-22T23:53:59.086Z,51.9
2017-08-22T23:54:56.665Z,51.9
2017-08-22T23:55:55.013Z,52.0
2017-08-22T23:56:52.599Z,51.9
2017-08-22T23:57:50.929Z,52.0
2017-08-22T23:58:48.667Z,51.9
2017-08-22T23:59:46.225Z,52.0
